createdAt,value
2023-03-29T00:02:30.329Z,5.75
2023-03-29T00:05:02.199Z,2.33
2023-03-29T00:07:30.339Z,4.35
2023-03-29T00:09:58.030Z,2.55
2023-03-29T00:12:24.917Z,3.05
2023-03-29T00:14:52.045Z,5.13
2023-03-29T00:17:19.366Z,3.72
2023-03-29T00:19:47.898Z,3.20
2023-03-29T00:22:15.101Z,4.05
2023-03-29T00:24:42.022Z,3.70
2023-03-29T00:27:08.839Z,5.75
2023-03-29T00:29:35.923Z,4.80
2023-03-29T00:32:02.796Z,3.70
2023-03-29T00:34:32.870Z,3.22
2023-03-29T00:37:00.116Z,5.47
2023-03-29T00:39:27.998Z,6.63
2023-03-29T00:41:55.820Z,3.85
2023-03-29T00:44:59.518Z,4.75
2023-03-29T00:47:37.968Z,4.78
2023-03-29T00:50:12.495Z,4.18
2023-03-29T00:52:41.604Z,3.65
2023-03-29T00:55:14.394Z,5.68
2023-03-29T00:57:46.449Z,4.13
2023-03-29T01:00:20.876Z,5.50
2023-03-29T01:02:54.480Z,4.50
2023-03-29T01:05:37.724Z,3.20
2023-03-29T01:08:11.136Z,5.70
2023-03-29T01:10:49.180Z,6.93
2023-03-29T01:13:22.372Z,4.22
2023-03-29T01:15:49.284Z,6.22
2023-03-29T01:18:17.037Z,4.57
2023-03-29T01:21:06.562Z,4.93
2023-03-29T01:24:06.696Z,7.10
2023-03-29T01:27:00.677Z,5.75
2023-03-29T01:29:35.936Z,5.47
2023-03-29T01:32:18.089Z,4.77
2023-03-29T01:35:12.931Z,3.67
2023-03-29T01:37:48.206Z,4.85
2023-03-29T01:40:15.482Z,3.05
2023-03-29T01:42:54.388Z,7.47
2023-03-29T01:45:30.927Z,6.90
2023-03-29T01:48:35.343Z,6.80
2023-03-29T01:51:10.038Z,5.35
2023-03-29T01:53:49.512Z,5.13
2023-03-29T01:56:22.996Z,4.13
2023-03-29T01:59:01.088Z,4.60
2023-03-29T02:01:33.000Z,5.20
2023-03-29T02:04:04.202Z,3.97
2023-03-29T02:06:34.083Z,5.18
2023-03-29T02:09:01.564Z,4.68
2023-03-29T02:11:29.467Z,6.20
2023-03-29T02:13:57.071Z,4.25
2023-03-29T02:16:24.147Z,2.97
2023-03-29T02:18:53.173Z,6.45
2023-03-29T02:21:51.777Z,4.32
2023-03-29T02:24:21.838Z,6.40
2023-03-29T02:26:49.272Z,5.00
2023-03-29T02:29:16.436Z,3.85
2023-03-29T02:31:49.410Z,3.00
2023-03-29T02:34:28.886Z,3.20
2023-03-29T02:37:00.573Z,6.47
2023-03-29T02:39:31.723Z,8.48
2023-03-29T02:41:59.590Z,6.57
2023-03-29T02:44:28.942Z,9.18
2023-03-29T02:47:04.373Z,3.25
2023-03-29T02:49:31.534Z,7.65
2023-03-29T02:52:06.690Z,7.80
2023-03-29T02:54:34.539Z,5.18
2023-03-29T02:57:06.602Z,5.00
2023-03-29T02:59:34.630Z,4.68
2023-03-29T03:02:01.651Z,4.10
2023-03-29T03:04:29.737Z,6.63
2023-03-29T03:06:56.670Z,8.57
2023-03-29T03:09:24.136Z,7.05
2023-03-29T03:11:52.597Z,4.23
2023-03-29T03:14:22.861Z,6.40
2023-03-29T03:16:51.031Z,5.75
2023-03-29T03:19:17.850Z,5.20
2023-03-29T03:21:45.520Z,4.00
2023-03-29T03:24:12.721Z,5.50
2023-03-29T03:26:39.525Z,6.45
2023-03-29T03:29:07.524Z,6.75
2023-03-29T03:31:54.192Z,6.40
2023-03-29T03:34:56.649Z,4.57
2023-03-29T03:37:26.226Z,5.53
2023-03-29T03:39:53.651Z,5.40
2023-03-29T03:42:20.874Z,5.57
2023-03-29T03:44:47.981Z,6.15
2023-03-29T03:47:34.021Z,4.67
2023-03-29T03:50:14.531Z,7.07
2023-03-29T03:52:41.625Z,4.00
2023-03-29T03:55:09.829Z,4.00
2023-03-29T03:57:52.746Z,7.63
2023-03-29T04:00:21.282Z,5.28
2023-03-29T04:03:06.333Z,4.68
2023-03-29T04:05:40.049Z,3.90
2023-03-29T04:08:07.269Z,5.72
2023-03-29T04:10:57.598Z,3.90
2023-03-29T04:13:30.189Z,7.15
2023-03-29T04:16:19.611Z,5.70
2023-03-29T04:18:47.073Z,6.85
2023-03-29T04:21:14.003Z,3.83
2023-03-29T04:23:42.939Z,5.80
2023-03-29T04:26:09.939Z,4.15
2023-03-29T04:28:49.284Z,5.65
2023-03-29T04:31:36.748Z,7.80
2023-03-29T04:34:27.057Z,4.53
2023-03-29T04:36:56.509Z,4.22
2023-03-29T04:39:32.096Z,8.13
2023-03-29T04:42:00.364Z,6.22
2023-03-29T04:44:29.906Z,4.00
2023-03-29T04:46:59.469Z,5.03
2023-03-29T04:49:45.070Z,6.60
2023-03-29T04:52:19.941Z,5.53
2023-03-29T04:54:48.480Z,3.58
2023-03-29T04:57:25.955Z,4.35
2023-03-29T05:00:01.234Z,4.47
2023-03-29T05:02:47.417Z,5.00
2023-03-29T05:05:15.525Z,5.53
2023-03-29T05:07:44.342Z,5.82
2023-03-29T05:10:12.348Z,6.05
2023-03-29T05:12:39.330Z,9.43
2023-03-29T05:15:07.074Z,5.30
2023-03-29T05:17:34.380Z,6.10
2023-03-29T05:20:10.200Z,7.78
2023-03-29T05:22:38.412Z,5.03
2023-03-29T05:25:08.333Z,5.22
2023-03-29T05:27:35.365Z,9.25
2023-03-29T05:30:09.224Z,6.47
2023-03-29T05:32:52.845Z,7.60
2023-03-29T05:35:25.491Z,10.40
2023-03-29T05:37:54.061Z,9.90
2023-03-29T05:40:22.114Z,5.32
2023-03-29T05:43:07.727Z,5.57
2023-03-29T05:45:34.713Z,7.38
2023-03-29T05:48:01.975Z,5.32
2023-03-29T05:50:30.215Z,9.27
2023-03-29T05:52:58.112Z,4.35
2023-03-29T05:55:25.027Z,8.55
2023-03-29T05:57:52.549Z,11.35
2023-03-29T06:00:24.257Z,6.78
2023-03-29T06:03:06.400Z,4.57
2023-03-29T06:05:40.881Z,5.68
2023-03-29T06:08:08.983Z,11.38
2023-03-29T06:10:41.974Z,8.57
2023-03-29T06:13:29.928Z,9.35
2023-03-29T06:15:56.979Z,7.28
2023-03-29T06:18:25.349Z,10.70
2023-03-29T06:20:53.791Z,8.45
2023-03-29T06:23:22.354Z,8.85
2023-03-29T06:25:51.519Z,7.85
2023-03-29T06:28:19.465Z,7.63
2023-03-29T06:30:46.978Z,7.90
2023-03-29T06:33:14.622Z,8.25
2023-03-29T06:36:01.878Z,8.57
2023-03-29T06:38:29.324Z,9.50
2023-03-29T06:41:07.896Z,8.52
2023-03-29T06:44:06.808Z,5.85
2023-03-29T06:46:38.698Z,6.43
2023-03-29T06:49:07.639Z,6.88
2023-03-29T06:51:44.106Z,6.70
2023-03-29T06:54:11.713Z,8.45
2023-03-29T06:56:47.345Z,8.43
2023-03-29T06:59:16.203Z,8.80
2023-03-29T07:01:50.023Z,10.70
2023-03-29T07:04:29.303Z,9.55
2023-03-29T07:07:22.801Z,11.75
2023-03-29T07:10:01.834Z,11.60
2023-03-29T07:13:00.991Z,9.27
2023-03-29T07:15:29.540Z,9.20
2023-03-29T07:18:18.928Z,10.77
2023-03-29T07:20:47.637Z,7.90
2023-03-29T07:23:15.382Z,9.00
2023-03-29T07:25:42.406Z,6.90
2023-03-29T07:28:11.197Z,8.00
2023-03-29T07:30:38.452Z,8.87
2023-03-29T07:33:23.387Z,10.38
2023-03-29T07:35:53.442Z,6.68
2023-03-29T07:38:20.587Z,9.65
2023-03-29T07:40:54.436Z,11.13
2023-03-29T07:43:57.036Z,14.38
2023-03-29T07:46:25.511Z,12.52
2023-03-29T07:48:52.695Z,8.32
2023-03-29T07:51:20.473Z,10.27
2023-03-29T07:53:54.989Z,10.02
2023-03-29T07:56:42.349Z,10.88
2023-03-29T07:59:22.978Z,17.20
2023-03-29T08:02:02.937Z,8.20
2023-03-29T08:04:37.829Z,11.82
2023-03-29T08:07:34.248Z,10.55
2023-03-29T08:10:39.651Z,13.77
2023-03-29T08:13:27.870Z,10.80
2023-03-29T08:16:18.515Z,11.30
2023-03-29T08:18:52.592Z,11.27
2023-03-29T08:21:21.800Z,9.98
2023-03-29T08:23:50.003Z,10.35
2023-03-29T08:26:40.454Z,11.27
2023-03-29T08:29:08.843Z,13.68
2023-03-29T08:31:35.869Z,9.95
2023-03-29T08:34:03.559Z,13.63
2023-03-29T08:36:36.603Z,12.95
2023-03-29T08:39:11.088Z,11.68
2023-03-29T08:41:57.768Z,14.67
2023-03-29T08:44:37.095Z,12.40
2023-03-29T08:47:33.225Z,13.52
2023-03-29T08:50:01.518Z,11.75
2023-03-29T08:52:48.427Z,10.50
2023-03-29T08:55:42.666Z,13.85
2023-03-29T08:58:49.740Z,12.75
2023-03-29T09:01:16.908Z,13.35
2023-03-29T09:04:13.143Z,16.48
2023-03-29T09:07:03.940Z,15.40
2023-03-29T09:09:42.265Z,16.10
2023-03-29T09:12:30.050Z,15.85
2023-03-29T09:15:09.451Z,10.73
2023-03-29T09:18:16.223Z,17.42
2023-03-29T09:21:02.191Z,16.88
2023-03-29T09:23:47.243Z,16.75
2023-03-29T09:27:08.580Z,16.52
2023-03-29T09:29:53.546Z,15.98
2023-03-29T09:32:42.284Z,16.00
2023-03-29T09:35:18.780Z,13.77
2023-03-29T09:37:49.128Z,11.88
2023-03-29T09:40:27.840Z,11.70
2023-03-29T09:43:27.122Z,12.57
2023-03-29T09:45:58.023Z,14.10
2023-03-29T09:48:27.124Z,15.53
2023-03-29T09:50:57.541Z,15.93
2023-03-29T09:53:24.937Z,13.63
2023-03-29T09:56:11.710Z,14.85
2023-03-29T09:58:46.562Z,14.33
2023-03-29T10:01:17.398Z,16.00
2023-03-29T10:03:50.640Z,16.52
2023-03-29T10:06:19.250Z,16.50
2023-03-29T10:08:55.070Z,14.02
2023-03-29T10:11:33.161Z,16.65
2023-03-29T10:14:06.629Z,14.80
2023-03-29T10:16:40.423Z,14.90
2023-03-29T10:19:30.963Z,15.82
2023-03-29T10:22:00.623Z,12.85
2023-03-29T10:24:28.251Z,16.27
2023-03-29T10:27:00.224Z,15.88
2023-03-29T10:29:34.544Z,17.52
2023-03-29T10:32:01.678Z,13.35
2023-03-29T10:34:28.637Z,14.23
2023-03-29T10:37:01.113Z,15.48
2023-03-29T10:39:33.298Z,19.80
2023-03-29T10:42:03.281Z,12.48
2023-03-29T10:44:36.387Z,14.43
2023-03-29T10:47:13.474Z,17.80
2023-03-29T10:49:44.162Z,16.67
2023-03-29T10:52:13.915Z,16.70
2023-03-29T10:54:40.967Z,21.25
2023-03-29T10:57:17.019Z,15.10
2023-03-29T10:59:59.128Z,19.45
2023-03-29T11:02:52.194Z,21.30
2023-03-29T11:05:28.639Z,20.00
2023-03-29T11:08:12.611Z,14.93
2023-03-29T11:10:46.813Z,25.88
2023-03-29T11:13:13.609Z,20.42
2023-03-29T11:15:53.454Z,21.27
2023-03-29T11:18:32.653Z,19.80
2023-03-29T11:21:33.418Z,21.10
2023-03-29T11:24:09.075Z,18.65
2023-03-29T11:26:38.678Z,19.25
2023-03-29T11:29:34.847Z,26.83
2023-03-29T11:32:20.473Z,24.42
2023-03-29T11:35:22.049Z,20.10
2023-03-29T11:38:19.219Z,20.60
2023-03-29T11:41:13.789Z,20.85
2023-03-29T11:44:06.250Z,22.88
2023-03-29T11:46:56.133Z,22.30
2023-03-29T11:49:36.897Z,27.20
2023-03-29T11:52:18.013Z,19.63
2023-03-29T11:54:51.497Z,23.23
2023-03-29T11:57:40.591Z,22.65
2023-03-29T12:00:22.589Z,21.93
2023-03-29T12:02:55.521Z,26.98
2023-03-29T12:05:52.289Z,21.10
2023-03-29T12:08:50.082Z,24.73
2023-03-29T12:11:27.325Z,23.27
2023-03-29T12:13:56.898Z,25.02
2023-03-29T12:16:39.905Z,24.08
2023-03-29T12:19:24.297Z,24.35
2023-03-29T12:21:51.857Z,25.58
2023-03-29T12:24:21.122Z,21.97
2023-03-29T12:27:07.817Z,22.10
2023-03-29T12:29:34.765Z,28.25
2023-03-29T12:32:33.282Z,25.92
2023-03-29T12:35:23.128Z,22.70
2023-03-29T12:38:23.909Z,22.02
2023-03-29T12:41:17.358Z,22.90
2023-03-29T12:44:04.110Z,25.07
2023-03-29T12:46:47.143Z,20.23
2023-03-29T12:49:27.068Z,24.10
2023-03-29T12:51:57.331Z,18.98
2023-03-29T12:54:28.347Z,17.42
2023-03-29T12:57:00.334Z,21.35
2023-03-29T12:59:44.550Z,15.75
2023-03-29T13:02:15.047Z,15.07
2023-03-29T13:04:56.407Z,16.75
2023-03-29T13:07:23.514Z,14.10
2023-03-29T13:09:51.791Z,14.05
2023-03-29T13:12:31.425Z,13.93
2023-03-29T13:15:05.962Z,16.55
2023-03-29T13:18:01.694Z,15.23
2023-03-29T13:20:37.740Z,14.60
2023-03-29T13:23:07.873Z,16.48
2023-03-29T13:25:43.632Z,14.25
2023-03-29T13:28:56.628Z,15.55
2023-03-29T13:32:10.260Z,14.27
2023-03-29T13:35:07.026Z,43.10
2023-03-29T13:38:00.171Z,48.95
2023-03-29T13:40:30.015Z,38.20
2023-03-29T13:43:19.585Z,18.60
2023-03-29T13:45:58.485Z,15.83
2023-03-29T13:48:37.707Z,17.15
2023-03-29T13:51:33.919Z,15.57
2023-03-29T13:54:22.383Z,14.60
2023-03-29T13:57:01.456Z,16.33
2023-03-29T13:59:35.750Z,16.27
2023-03-29T14:02:06.498Z,16.63
2023-03-29T14:04:43.601Z,17.60
2023-03-29T14:07:14.044Z,15.25
2023-03-29T14:09:48.734Z,23.15
2023-03-29T14:12:17.215Z,13.60
2023-03-29T14:14:58.135Z,13.48
2023-03-29T14:17:25.872Z,13.10
2023-03-29T14:19:53.472Z,12.48
2023-03-29T14:22:21.791Z,9.43
2023-03-29T14:24:53.597Z,11.65
2023-03-29T14:27:22.020Z,10.35
2023-03-29T14:29:51.091Z,13.75
2023-03-29T14:32:20.202Z,8.65
2023-03-29T14:34:50.865Z,14.02
2023-03-29T14:37:23.613Z,11.45
2023-03-29T14:39:50.934Z,8.52
2023-03-29T14:42:26.751Z,7.60
2023-03-29T14:45:04.383Z,8.90
2023-03-29T14:47:33.437Z,7.30
2023-03-29T14:50:01.782Z,10.63
2023-03-29T14:52:30.462Z,8.18
2023-03-29T14:55:01.965Z,11.70
2023-03-29T14:57:34.157Z,9.82
2023-03-29T15:00:08.114Z,7.20
2023-03-29T15:02:35.065Z,9.05
2023-03-29T15:05:07.534Z,9.50
2023-03-29T15:07:37.155Z,7.35
2023-03-29T15:10:06.529Z,7.00
2023-03-29T15:12:34.139Z,10.02
2023-03-29T15:15:02.661Z,8.27
2023-03-29T15:17:50.118Z,10.20
2023-03-29T15:20:27.060Z,7.93
2023-03-29T15:23:01.901Z,6.88
2023-03-29T15:25:34.388Z,9.13
2023-03-29T15:28:01.785Z,7.80
2023-03-29T15:30:35.031Z,8.95
2023-03-29T15:33:23.132Z,7.72
2023-03-29T15:35:52.770Z,5.05
2023-03-29T15:38:27.497Z,5.22
2023-03-29T15:41:01.370Z,7.30
2023-03-29T15:43:28.467Z,7.30
2023-03-29T15:45:55.413Z,4.82
2023-03-29T15:48:27.347Z,4.63
2023-03-29T15:50:54.823Z,7.13
2023-03-29T15:53:23.643Z,3.95
2023-03-29T15:55:54.310Z,8.97
2023-03-29T15:58:30.584Z,9.48
2023-03-29T16:01:19.411Z,4.53
2023-03-29T16:03:47.966Z,5.05
2023-03-29T16:06:16.700Z,4.72
2023-03-29T16:08:43.714Z,3.95
2023-03-29T16:11:11.736Z,3.92
2023-03-29T16:13:38.871Z,4.10
2023-03-29T16:16:06.786Z,10.57
2023-03-29T16:18:33.812Z,10.35
2023-03-29T16:21:01.005Z,8.02
2023-03-29T16:23:28.016Z,4.78
2023-03-29T16:25:56.166Z,6.20
2023-03-29T16:28:23.153Z,6.53
2023-03-29T16:30:50.065Z,4.72
2023-03-29T16:33:17.107Z,4.38
2023-03-29T16:35:44.054Z,8.02
2023-03-29T16:38:10.919Z,5.47
2023-03-29T16:40:38.420Z,4.90
2023-03-29T16:43:05.966Z,7.00
2023-03-29T16:45:32.941Z,6.00
2023-03-29T16:47:59.867Z,8.10
2023-03-29T16:50:26.801Z,8.50
2023-03-29T16:52:53.746Z,4.13
2023-03-29T16:55:20.719Z,5.57
2023-03-29T16:57:48.539Z,6.72
2023-03-29T17:00:19.864Z,4.95
2023-03-29T17:02:49.691Z,6.03
2023-03-29T17:05:17.780Z,6.35
2023-03-29T17:07:45.732Z,4.30
2023-03-29T17:10:13.648Z,5.80
2023-03-29T17:12:41.017Z,9.38
2023-03-29T17:15:09.393Z,4.22
2023-03-29T17:17:37.750Z,5.25
2023-03-29T17:20:08.554Z,4.57
2023-03-29T17:22:35.981Z,4.60
2023-03-29T17:25:03.968Z,6.45
2023-03-29T17:27:31.033Z,5.63
2023-03-29T17:29:57.968Z,5.88
2023-03-29T17:32:25.513Z,4.03
2023-03-29T17:34:53.109Z,5.82
2023-03-29T17:37:21.348Z,5.25
2023-03-29T17:39:48.314Z,5.07
2023-03-29T17:42:16.249Z,4.75
2023-03-29T17:44:43.708Z,6.35
2023-03-29T17:47:10.561Z,6.32
2023-03-29T17:49:37.366Z,5.88
2023-03-29T17:52:04.430Z,6.70
2023-03-29T17:54:31.243Z,4.10
2023-03-29T17:56:58.153Z,7.28
2023-03-29T17:59:25.866Z,6.25
2023-03-29T18:01:52.698Z,6.93
2023-03-29T18:04:19.532Z,6.83
2023-03-29T18:06:46.483Z,8.60
2023-03-29T18:09:13.603Z,7.13
2023-03-29T18:11:40.544Z,4.00
2023-03-29T18:14:07.720Z,6.22
2023-03-29T18:16:34.698Z,4.63
2023-03-29T18:19:01.760Z,7.57
2023-03-29T18:21:28.793Z,4.75
2023-03-29T18:23:56.951Z,4.55
2023-03-29T18:26:25.138Z,7.57
2023-03-29T18:28:52.413Z,4.57
2023-03-29T18:31:19.949Z,11.73
2023-03-29T18:33:47.992Z,6.07
2023-03-29T18:36:15.160Z,6.10
2023-03-29T18:38:43.536Z,6.63
2023-03-29T18:41:13.663Z,7.57
2023-03-29T18:43:41.605Z,9.15
2023-03-29T18:46:08.551Z,4.97
2023-03-29T18:48:38.949Z,6.53
2023-03-29T18:51:08.055Z,8.05
2023-03-29T18:53:36.129Z,6.95
2023-03-29T18:56:04.472Z,6.22
2023-03-29T18:58:31.577Z,5.33
2023-03-29T19:01:04.284Z,7.95
2023-03-29T19:03:33.328Z,7.28
2023-03-29T19:06:01.260Z,6.82
2023-03-29T19:08:28.366Z,5.05
2023-03-29T19:11:02.216Z,9.77
2023-03-29T19:13:29.116Z,6.85
2023-03-29T19:15:56.006Z,7.00
2023-03-29T19:18:23.105Z,5.80
2023-03-29T19:20:54.314Z,6.40
2023-03-29T19:23:27.256Z,6.32
2023-03-29T19:26:00.311Z,6.68
2023-03-29T19:28:27.995Z,10.25
2023-03-29T19:30:56.276Z,5.57
2023-03-29T19:33:23.335Z,6.40
2023-03-29T19:35:51.719Z,6.97
2023-03-29T19:38:19.769Z,7.85
2023-03-29T19:40:48.373Z,7.97
2023-03-29T19:43:18.783Z,5.70
2023-03-29T19:45:47.550Z,6.63
2023-03-29T19:48:21.832Z,9.83
2023-03-29T19:50:49.754Z,5.68
2023-03-29T19:53:16.886Z,7.43
2023-03-29T19:55:45.454Z,9.40
2023-03-29T19:58:13.047Z,5.35
2023-03-29T20:00:41.788Z,6.38
2023-03-29T20:03:09.869Z,10.18
2023-03-29T20:05:37.461Z,10.52
2023-03-29T20:08:04.516Z,9.43
2023-03-29T20:10:31.528Z,7.25
2023-03-29T20:12:58.475Z,6.25
2023-03-29T20:15:28.307Z,8.38
2023-03-29T20:17:59.452Z,7.82
2023-03-29T20:20:27.532Z,5.95
2023-03-29T20:22:58.398Z,9.60
2023-03-29T20:25:25.878Z,6.22
2023-03-29T20:27:53.045Z,11.05
2023-03-29T20:30:20.574Z,7.30
2023-03-29T20:32:47.693Z,7.57
2023-03-29T20:35:14.702Z,6.63
2023-03-29T20:37:41.587Z,5.40
2023-03-29T20:40:09.167Z,8.70
2023-03-29T20:42:38.261Z,7.50
2023-03-29T20:45:05.876Z,5.95
2023-03-29T20:47:32.741Z,6.00
2023-03-29T20:50:01.625Z,5.30
2023-03-29T20:52:28.456Z,8.82
2023-03-29T20:54:55.318Z,7.57
2023-03-29T20:57:22.457Z,7.80
2023-03-29T20:59:49.423Z,6.38
2023-03-29T21:02:22.772Z,6.45
2023-03-29T21:04:53.791Z,8.90
2023-03-29T21:07:21.443Z,9.93
2023-03-29T21:09:49.870Z,7.93
2023-03-29T21:12:17.475Z,8.67
2023-03-29T21:14:44.799Z,9.40
2023-03-29T21:17:11.645Z,9.77
2023-03-29T21:19:39.557Z,7.07
2023-03-29T21:22:06.801Z,12.65
2023-03-29T21:24:36.397Z,9.98
2023-03-29T21:27:03.366Z,9.90
2023-03-29T21:29:30.298Z,12.25
2023-03-29T21:31:57.171Z,9.55
2023-03-29T21:34:24.251Z,8.87
2023-03-29T21:36:51.431Z,7.22
2023-03-29T21:39:18.440Z,6.65
2023-03-29T21:41:45.245Z,8.27
2023-03-29T21:44:12.837Z,11.02
2023-03-29T21:46:39.778Z,7.88
2023-03-29T21:49:06.899Z,9.48
2023-03-29T21:51:33.760Z,10.85
2023-03-29T21:54:00.597Z,8.48
2023-03-29T21:56:28.159Z,11.85
2023-03-29T21:58:55.652Z,9.52
2023-03-29T22:01:22.530Z,9.15
2023-03-29T22:03:49.428Z,11.93
2023-03-29T22:06:16.389Z,10.30
2023-03-29T22:08:43.378Z,12.25
2023-03-29T22:11:14.326Z,9.07
2023-03-29T22:13:42.673Z,8.73
2023-03-29T22:16:13.887Z,8.18
2023-03-29T22:18:44.255Z,9.25
2023-03-29T22:21:15.768Z,9.38
2023-03-29T22:23:44.501Z,7.68
2023-03-29T22:26:13.927Z,9.57
2023-03-29T22:28:41.787Z,10.15
2023-03-29T22:31:11.949Z,9.48
2023-03-29T22:33:40.277Z,9.77
2023-03-29T22:36:21.891Z,8.18
2023-03-29T22:38:49.873Z,8.65
2023-03-29T22:41:18.149Z,6.57
2023-03-29T22:43:45.552Z,8.32
2023-03-29T22:46:14.007Z,9.20
2023-03-29T22:48:41.333Z,6.78
2023-03-29T22:51:08.370Z,10.40
2023-03-29T22:53:35.447Z,8.80
2023-03-29T22:56:02.789Z,7.75
2023-03-29T22:58:29.817Z,8.95
2023-03-29T23:00:57.856Z,9.65
2023-03-29T23:03:25.143Z,8.57
2023-03-29T23:05:55.068Z,7.07
2023-03-29T23:08:23.250Z,9.65
2023-03-29T23:10:50.577Z,9.65
2023-03-29T23:13:24.235Z,9.00
2023-03-29T23:15:52.642Z,8.35
2023-03-29T23:18:21.231Z,8.77
2023-03-29T23:20:49.507Z,8.70
2023-03-29T23:23:17.798Z,10.15
2023-03-29T23:25:48.828Z,8.27
2023-03-29T23:28:21.753Z,10.68
2023-03-29T23:31:00.333Z,8.88
2023-03-29T23:33:29.268Z,9.73
2023-03-29T23:35:56.820Z,9.63
2023-03-29T23:38:24.230Z,12.50
2023-03-29T23:40:58.823Z,9.70
2023-03-29T23:43:32.829Z,10.00
2023-03-29T23:46:05.915Z,9.88
2023-03-29T23:48:34.355Z,9.90
2023-03-29T23:51:02.351Z,7.55
2023-03-29T23:53:30.288Z,8.17
2023-03-29T23:56:02.093Z,6.93
2023-03-29T23:58:31.822Z,8.00
